sensor_id;sensor_type;location;lat;lon;timestamp;temperature;humidity
6740;DHT22;3407;49.882;10.920;2023-02-15T00:01:27;1.30;58.80
6740;DHT22;3407;49.882;10.920;2023-02-15T00:06:23;1.20;68.50
6740;DHT22;3407;49.882;10.920;2023-02-15T00:11:19;1.10;74.70
6740;DHT22;3407;49.882;10.920;2023-02-15T00:16:33;1.10;77.00
6740;DHT22;3407;49.882;10.920;2023-02-15T00:21:30;1.10;81.20
6740;DHT22;3407;49.882;10.920;2023-02-15T00:26:27;1.30;85.60
6740;DHT22;3407;49.882;10.920;2023-02-15T00:31:22;1.40;85.40
6740;DHT22;3407;49.882;10.920;2023-02-15T00:36:18;1.30;80.40
6740;DHT22;3407;49.882;10.920;2023-02-15T00:41:13;1.20;73.70
6740;DHT22;3407;49.882;10.920;2023-02-15T00:46:09;1.10;74.00
6740;DHT22;3407;49.882;10.920;2023-02-15T00:51:04;1.00;77.50
6740;DHT22;3407;49.882;10.920;2023-02-15T00:56:00;1.00;79.50
6740;DHT22;3407;49.882;10.920;2023-02-15T01:01:06;1.00;81.70
6740;DHT22;3407;49.882;10.920;2023-02-15T01:06:02;1.10;79.50
6740;DHT22;3407;49.882;10.920;2023-02-15T01:11:03;1.10;77.50
6740;DHT22;3407;49.882;10.920;2023-02-15T01:15:59;1.10;71.10
6740;DHT22;3407;49.882;10.920;2023-02-15T01:20:55;1.10;68.40
6740;DHT22;3407;49.882;10.920;2023-02-15T01:25:50;1.10;69.40
6740;DHT22;3407;49.882;10.920;2023-02-15T01:30:46;1.10;68.40
6740;DHT22;3407;49.882;10.920;2023-02-15T01:35:41;1.10;67.10
6740;DHT22;3407;49.882;10.920;2023-02-15T01:40:37;1.20;66.50
6740;DHT22;3407;49.882;10.920;2023-02-15T01:45:34;1.10;56.60
6740;DHT22;3407;49.882;10.920;2023-02-15T01:50:44;1.10;55.60
6740;DHT22;3407;49.882;10.920;2023-02-15T01:55:45;1.00;52.30
6740;DHT22;3407;49.882;10.920;2023-02-15T02:00:42;1.00;50.90
6740;DHT22;3407;49.882;10.920;2023-02-15T02:05:39;1.00;54.90
6740;DHT22;3407;49.882;10.920;2023-02-15T02:10:36;1.00;52.40
6740;DHT22;3407;49.882;10.920;2023-02-15T02:37:03;1.00;43.60
6740;DHT22;3407;49.882;10.920;2023-02-15T02:47:34;0.80;26.30
6740;DHT22;3407;49.882;10.920;2023-02-15T02:52:53;0.60;34.00
6740;DHT22;3407;49.882;10.920;2023-02-15T02:58:08;0.60;43.00
6740;DHT22;3407;49.882;10.920;2023-02-15T03:03:15;0.70;41.00
6740;DHT22;3407;49.882;10.920;2023-02-15T03:08:16;0.80;44.50
6740;DHT22;3407;49.882;10.920;2023-02-15T03:13:17;0.70;33.20
6740;DHT22;3407;49.882;10.920;2023-02-15T03:18:13;0.50;30.50
6740;DHT22;3407;49.882;10.920;2023-02-15T03:23:17;0.40;41.10
6740;DHT22;3407;49.882;10.920;2023-02-15T03:28:25;0.40;50.10
6740;DHT22;3407;49.882;10.920;2023-02-15T03:33:26;0.60;58.40
6740;DHT22;3407;49.882;10.920;2023-02-15T03:38:29;0.70;58.10
6740;DHT22;3407;49.882;10.920;2023-02-15T03:43:54;0.80;53.80
6740;DHT22;3407;49.882;10.920;2023-02-15T03:49:09;0.80;48.30
6740;DHT22;3407;49.882;10.920;2023-02-15T03:54:18;0.90;44.90
6740;DHT22;3407;49.882;10.920;2023-02-15T03:59:33;0.80;33.70
6740;DHT22;3407;49.882;10.920;2023-02-15T04:04:47;0.80;32.80
6740;DHT22;3407;49.882;10.920;2023-02-15T04:09:43;0.80;29.30
6740;DHT22;3407;49.882;10.920;2023-02-15T04:14:57;0.80;24.00
6740;DHT22;3407;49.882;10.920;2023-02-15T04:20:11;0.60;21.40
6740;DHT22;3407;49.882;10.920;2023-02-15T04:25:25;0.40;28.20
6740;DHT22;3407;49.882;10.920;2023-02-15T04:30:23;0.20;39.10
6740;DHT22;3407;49.882;10.920;2023-02-15T04:35:19;0.20;49.00
6740;DHT22;3407;49.882;10.920;2023-02-15T04:40:15;0.10;54.70
6740;DHT22;3407;49.882;10.920;2023-02-15T04:45:11;0.10;59.50
6740;DHT22;3407;49.882;10.920;2023-02-15T04:50:07;0.10;61.20
6740;DHT22;3407;49.882;10.920;2023-02-15T04:55:02;0.10;66.20
6740;DHT22;3407;49.882;10.920;2023-02-15T04:59:58;0.10;65.00
6740;DHT22;3407;49.882;10.920;2023-02-15T05:04:54;0.00;68.20
6740;DHT22;3407;49.882;10.920;2023-02-15T05:09:49;0.10;71.00
6740;DHT22;3407;49.882;10.920;2023-02-15T05:14:45;0.10;70.70
6740;DHT22;3407;49.882;10.920;2023-02-15T05:19:40;0.10;73.50
6740;DHT22;3407;49.882;10.920;2023-02-15T05:24:36;0.10;68.00
6740;DHT22;3407;49.882;10.920;2023-02-15T05:29:50;0.20;65.40
6740;DHT22;3407;49.882;10.920;2023-02-15T05:34:46;0.30;63.10
6740;DHT22;3407;49.882;10.920;2023-02-15T05:39:41;0.20;55.00
6740;DHT22;3407;49.882;10.920;2023-02-15T05:44:37;0.20;53.30
6740;DHT22;3407;49.882;10.920;2023-02-15T05:49:32;0.20;56.40
6740;DHT22;3407;49.882;10.920;2023-02-15T05:54:28;0.10;50.10
6740;DHT22;3407;49.882;10.920;2023-02-15T05:59:24;0.00;54.40
6740;DHT22;3407;49.882;10.920;2023-02-15T06:04:19;0.10;55.60
6740;DHT22;3407;49.882;10.920;2023-02-15T06:09:14;0.10;54.90
6740;DHT22;3407;49.882;10.920;2023-02-15T06:14:13;0.10;55.60
6740;DHT22;3407;49.882;10.920;2023-02-15T06:19:08;0.10;53.70
6740;DHT22;3407;49.882;10.920;2023-02-15T06:24:04;0.10;57.40
6740;DHT22;3407;49.882;10.920;2023-02-15T06:29:00;0.30;59.20
6740;DHT22;3407;49.882;10.920;2023-02-15T06:33:55;0.40;54.00
6740;DHT22;3407;49.882;10.920;2023-02-15T06:38:56;0.40;43.00
6740;DHT22;3407;49.882;10.920;2023-02-15T06:43:52;0.40;39.00
6740;DHT22;3407;49.882;10.920;2023-02-15T06:48:47;0.50;39.70
6740;DHT22;3407;49.882;10.920;2023-02-15T06:53:43;0.50;39.60
6740;DHT22;3407;49.882;10.920;2023-02-15T06:58:40;0.50;29.10
6740;DHT22;3407;49.882;10.920;2023-02-15T07:03:35;0.30;20.80
6740;DHT22;3407;49.882;10.920;2023-02-15T07:08:31;0.20;31.40
6740;DHT22;3407;49.882;10.920;2023-02-15T07:13:26;0.30;32.00
6740;DHT22;3407;49.882;10.920;2023-02-15T07:18:22;0.40;41.10
6740;DHT22;3407;49.882;10.920;2023-02-15T07:23:17;0.50;33.20
6740;DHT22;3407;49.882;10.920;2023-02-15T07:28:13;0.50;16.00
6740;DHT22;3407;49.882;10.920;2023-02-15T07:33:09;0.50;23.70
6740;DHT22;3407;49.882;10.920;2023-02-15T07:38:20;0.50;21.10
6740;DHT22;3407;49.882;10.920;2023-02-15T07:43:16;0.30;20.60
6740;DHT22;3407;49.882;10.920;2023-02-15T07:48:12;0.30;25.30
6740;DHT22;3407;49.882;10.920;2023-02-15T07:53:07;0.40;29.20
6740;DHT22;3407;49.882;10.920;2023-02-15T07:58:03;0.50;30.00
6740;DHT22;3407;49.882;10.920;2023-02-15T08:02:58;0.50;23.70
6740;DHT22;3407;49.882;10.920;2023-02-15T08:08:10;0.50;24.10
6740;DHT22;3407;49.882;10.920;2023-02-15T08:13:24;0.60;26.50
6740;DHT22;3407;49.882;10.920;2023-02-15T08:18:20;0.80;18.10
6740;DHT22;3407;49.882;10.920;2023-02-15T08:23:15;1.00;6.40
6740;DHT22;3407;49.882;10.920;2023-02-15T08:28:11;1.10;1.00
6740;DHT22;3407;49.882;10.920;2023-02-15T08:33:06;1.10;1.00
6740;DHT22;3407;49.882;10.920;2023-02-15T08:38:02;1.00;1.00
6740;DHT22;3407;49.882;10.920;2023-02-15T08:42:57;1.10;1.00
6740;DHT22;3407;49.882;10.920;2023-02-15T08:47:53;1.30;1.00
6740;DHT22;3407;49.882;10.920;2023-02-15T08:52:48;1.30;1.00
6740;DHT22;3407;49.882;10.920;2023-02-15T08:57:44;1.30;1.00
6740;DHT22;3407;49.882;10.920;2023-02-15T09:02:41;1.30;1.00
6740;DHT22;3407;49.882;10.920;2023-02-15T09:07:36;1.20;1.00
6740;DHT22;3407;49.882;10.920;2023-02-15T09:12:32;1.40;1.00
6740;DHT22;3407;49.882;10.920;2023-02-15T09:17:27;1.60;1.00
6740;DHT22;3407;49.882;10.920;2023-02-15T09:22:23;1.60;1.00
6740;DHT22;3407;49.882;10.920;2023-02-15T09:27:19;1.60;1.00
6740;DHT22;3407;49.882;10.920;2023-02-15T09:32:14;1.70;1.00
6740;DHT22;3407;49.882;10.920;2023-02-15T09:37:10;1.80;1.00
6740;DHT22;3407;49.882;10.920;2023-02-15T09:42:11;1.80;1.00
6740;DHT22;3407;49.882;10.920;2023-02-15T10:03:02;1.80;1.00
6740;DHT22;3407;49.882;10.920;2023-02-15T10:24:15;2.20;1.00
6740;DHT22;3407;49.882;10.920;2023-02-15T10:34:21;2.20;1.00
6740;DHT22;3407;49.882;10.920;2023-02-15T10:45:06;2.30;1.00
6740;DHT22;3407;49.882;10.920;2023-02-15T10:55:54;2.10;99.90
6740;DHT22;3407;49.882;10.920;2023-02-15T11:01:01;2.20;1.00
6740;DHT22;3407;49.882;10.920;2023-02-15T11:06:10;2.10;99.90
6740;DHT22;3407;49.882;10.920;2023-02-15T11:11:10;2.10;1.00
6740;DHT22;3407;49.882;10.920;2023-02-15T11:21:28;2.20;1.00
6740;DHT22;3407;49.882;10.920;2023-02-15T11:26:38;2.40;1.00
6740;DHT22;3407;49.882;10.920;2023-02-15T11:31:57;2.70;1.00
6740;DHT22;3407;49.882;10.920;2023-02-15T11:36:55;3.10;99.90
6740;DHT22;3407;49.882;10.920;2023-02-15T11:41:55;3.30;1.00
6740;DHT22;3407;49.882;10.920;2023-02-15T11:46:52;3.20;99.90
6740;DHT22;3407;49.882;10.920;2023-02-15T11:51:48;3.00;1.00
6740;DHT22;3407;49.882;10.920;2023-02-15T11:56:45;2.80;1.00
6740;DHT22;3407;49.882;10.920;2023-02-15T12:01:43;2.80;99.90
6740;DHT22;3407;49.882;10.920;2023-02-15T12:06:49;3.10;1.00
6740;DHT22;3407;49.882;10.920;2023-02-15T12:11:46;3.50;60.00
6740;DHT22;3407;49.882;10.920;2023-02-15T12:16:53;4.10;99.90
6740;DHT22;3407;49.882;10.920;2023-02-15T12:21:51;4.60;1.00
6740;DHT22;3407;49.882;10.920;2023-02-15T12:32:25;5.20;99.90
6740;DHT22;3407;49.882;10.920;2023-02-15T12:37:28;5.60;99.90
6740;DHT22;3407;49.882;10.920;2023-02-15T12:42:25;7.20;1.00
6740;DHT22;3407;49.882;10.920;2023-02-15T12:47:21;8.20;1.00
6740;DHT22;3407;49.882;10.920;2023-02-15T12:57:27;9.50;1.00
6740;DHT22;3407;49.882;10.920;2023-02-15T13:07:48;8.70;1.00
6740;DHT22;3407;49.882;10.920;2023-02-15T13:12:46;8.60;1.00
6740;DHT22;3407;49.882;10.920;2023-02-15T13:17:42;8.70;1.00
6740;DHT22;3407;49.882;10.920;2023-02-15T13:22:43;8.80;1.00
6740;DHT22;3407;49.882;10.920;2023-02-15T13:27:41;9.00;1.00
6740;DHT22;3407;49.882;10.920;2023-02-15T13:32:39;9.20;99.90
6740;DHT22;3407;49.882;10.920;2023-02-15T13:43:25;9.60;99.90
6740;DHT22;3407;49.882;10.920;2023-02-15T13:54:09;9.80;99.90
6740;DHT22;3407;49.882;10.920;2023-02-15T13:59:45;10.00;99.90
6740;DHT22;3407;49.882;10.920;2023-02-15T14:04:45;9.70;99.90
6740;DHT22;3407;49.882;10.920;2023-02-15T14:25:57;10.10;99.90
6740;DHT22;3407;49.882;10.920;2023-02-15T14:30:55;10.40;99.90
6740;DHT22;3407;49.882;10.920;2023-02-15T14:35:53;10.50;99.90
6740;DHT22;3407;49.882;10.920;2023-02-15T14:41:07;10.50;99.90
6740;DHT22;3407;49.882;10.920;2023-02-15T14:56:45;10.00;99.90
6740;DHT22;3407;49.882;10.920;2023-02-15T15:01:47;10.00;99.90
6740;DHT22;3407;49.882;10.920;2023-02-15T15:07:19;9.80;99.90
6740;DHT22;3407;49.882;10.920;2023-02-15T15:17:12;9.70;99.90
6740;DHT22;3407;49.882;10.920;2023-02-15T15:22:29;9.40;99.90
6740;DHT22;3407;49.882;10.920;2023-02-15T15:32:47;8.50;99.90
6740;DHT22;3407;49.882;10.920;2023-02-15T15:43:29;7.70;1.00
6740;DHT22;3407;49.882;10.920;2023-02-15T15:48:38;7.10;1.00
6740;DHT22;3407;49.882;10.920;2023-02-15T15:53:43;6.20;77.00
6740;DHT22;3407;49.882;10.920;2023-02-15T15:58:54;5.40;1.00
6740;DHT22;3407;49.882;10.920;2023-02-15T16:03:53;4.70;5.80
6740;DHT22;3407;49.882;10.920;2023-02-15T16:08:49;4.00;99.90
6740;DHT22;3407;49.882;10.920;2023-02-15T16:13:47;3.50;1.00
6740;DHT22;3407;49.882;10.920;2023-02-15T16:18:42;3.10;99.90
6740;DHT22;3407;49.882;10.920;2023-02-15T16:24:17;2.70;99.90
6740;DHT22;3407;49.882;10.920;2023-02-15T16:29:16;2.40;1.00
6740;DHT22;3407;49.882;10.920;2023-02-15T16:34:16;2.20;1.00
6740;DHT22;3407;49.882;10.920;2023-02-15T16:39:18;2.00;1.00
6740;DHT22;3407;49.882;10.920;2023-02-15T16:44:19;1.80;1.00
6740;DHT22;3407;49.882;10.920;2023-02-15T16:49:26;1.60;1.00
6740;DHT22;3407;49.882;10.920;2023-02-15T16:54:23;1.50;1.00
6740;DHT22;3407;49.882;10.920;2023-02-15T16:59:39;1.30;1.00
6740;DHT22;3407;49.882;10.920;2023-02-15T17:04:38;1.10;1.00
6740;DHT22;3407;49.882;10.920;2023-02-15T17:09:34;1.00;1.00
6740;DHT22;3407;49.882;10.920;2023-02-15T17:14:31;0.90;1.00
6740;DHT22;3407;49.882;10.920;2023-02-15T17:19:32;0.80;1.00
6740;DHT22;3407;49.882;10.920;2023-02-15T17:24:35;0.70;1.00
6740;DHT22;3407;49.882;10.920;2023-02-15T17:29:41;0.60;1.00
6740;DHT22;3407;49.882;10.920;2023-02-15T17:40:25;0.40;1.00
6740;DHT22;3407;49.882;10.920;2023-02-15T17:45:22;0.30;1.00
6740;DHT22;3407;49.882;10.920;2023-02-15T17:50:25;0.30;1.00
6740;DHT22;3407;49.882;10.920;2023-02-15T17:55:22;0.20;1.00
6740;DHT22;3407;49.882;10.920;2023-02-15T18:00:31;0.10;1.00
6740;DHT22;3407;49.882;10.920;2023-02-15T18:05:47;0.00;2.30
6740;DHT22;3407;49.882;10.920;2023-02-15T18:11:02;0.10;10.90
6740;DHT22;3407;49.882;10.920;2023-02-15T18:16:22;0.10;20.50
6740;DHT22;3407;49.882;10.920;2023-02-15T18:21:18;0.10;26.70
6740;DHT22;3407;49.882;10.920;2023-02-15T18:26:22;0.20;31.80
6740;DHT22;3407;49.882;10.920;2023-02-15T18:31:19;0.20;32.90
6740;DHT22;3407;49.882;10.920;2023-02-15T18:36:33;0.20;36.40
6740;DHT22;3407;49.882;10.920;2023-02-15T18:41:30;0.10;36.80
6740;DHT22;3407;49.882;10.920;2023-02-15T18:46:26;0.10;41.70
6740;DHT22;3407;49.882;10.920;2023-02-15T18:51:22;0.00;43.50
6740;DHT22;3407;49.882;10.920;2023-02-15T18:56:20;0.00;47.80
6740;DHT22;3407;49.882;10.920;2023-02-15T19:01:20;-0.10;50.90
6740;DHT22;3407;49.882;10.920;2023-02-15T19:06:20;0.00;55.30
6740;DHT22;3407;49.882;10.920;2023-02-15T19:11:20;0.10;55.90
6740;DHT22;3407;49.882;10.920;2023-02-15T19:16:32;0.10;54.80
6740;DHT22;3407;49.882;10.920;2023-02-15T19:21:30;0.20;56.80
6740;DHT22;3407;49.882;10.920;2023-02-15T19:26:26;0.30;58.60
6740;DHT22;3407;49.882;10.920;2023-02-15T19:31:26;0.40;50.60
6740;DHT22;3407;49.882;10.920;2023-02-15T19:36:22;0.30;43.30
6740;DHT22;3407;49.882;10.920;2023-02-15T19:41:29;0.30;44.00
6740;DHT22;3407;49.882;10.920;2023-02-15T19:46:25;0.30;44.70
6740;DHT22;3407;49.882;10.920;2023-02-15T19:51:22;0.40;46.30
6740;DHT22;3407;49.882;10.920;2023-02-15T19:56:22;0.50;47.30
6740;DHT22;3407;49.882;10.920;2023-02-15T20:01:18;0.50;45.50
6740;DHT22;3407;49.882;10.920;2023-02-15T20:06:14;0.40;47.30
6740;DHT22;3407;49.882;10.920;2023-02-15T20:11:11;0.40;51.50
6740;DHT22;3407;49.882;10.920;2023-02-15T20:16:07;0.50;58.30
6740;DHT22;3407;49.882;10.920;2023-02-15T20:21:04;0.60;62.10
6740;DHT22;3407;49.882;10.920;2023-02-15T20:26:12;0.60;60.80
6740;DHT22;3407;49.882;10.920;2023-02-15T20:31:15;0.60;56.40
6740;DHT22;3407;49.882;10.920;2023-02-15T20:36:16;0.40;51.90
6740;DHT22;3407;49.882;10.920;2023-02-15T20:41:18;0.30;55.60
6740;DHT22;3407;49.882;10.920;2023-02-15T20:46:33;0.30;61.60
6740;DHT22;3407;49.882;10.920;2023-02-15T20:51:28;0.20;56.90
6740;DHT22;3407;49.882;10.920;2023-02-15T20:56:24;0.20;58.40
6740;DHT22;3407;49.882;10.920;2023-02-15T21:01:20;0.30;59.50
6740;DHT22;3407;49.882;10.920;2023-02-15T21:06:16;0.20;58.50
6740;DHT22;3407;49.882;10.920;2023-02-15T21:11:19;0.20;59.50
6740;DHT22;3407;49.882;10.920;2023-02-15T21:16:16;0.00;52.50
6740;DHT22;3407;49.882;10.920;2023-02-15T21:21:17;-0.20;49.60
6740;DHT22;3407;49.882;10.920;2023-02-15T21:26:17;-0.20;55.50
6740;DHT22;3407;49.882;10.920;2023-02-15T21:31:19;-0.10;60.20
6740;DHT22;3407;49.882;10.920;2023-02-15T21:36:17;-0.10;65.10
6740;DHT22;3407;49.882;10.920;2023-02-15T21:41:19;0.00;68.10
6740;DHT22;3407;49.882;10.920;2023-02-15T21:46:33;0.00;69.00
6740;DHT22;3407;49.882;10.920;2023-02-15T21:51:48;0.10;68.20
6740;DHT22;3407;49.882;10.920;2023-02-15T21:57:02;0.10;67.00
6740;DHT22;3407;49.882;10.920;2023-02-15T22:01:57;0.00;66.80
6740;DHT22;3407;49.882;10.920;2023-02-15T22:06:54;0.00;64.90
6740;DHT22;3407;49.882;10.920;2023-02-15T22:11:50;0.00;65.70
6740;DHT22;3407;49.882;10.920;2023-02-15T22:16:46;0.00;64.70
6740;DHT22;3407;49.882;10.920;2023-02-15T22:21:42;0.00;62.90
6740;DHT22;3407;49.882;10.920;2023-02-15T22:26:37;0.00;59.90
6740;DHT22;3407;49.882;10.920;2023-02-15T22:31:33;0.00;59.50
6740;DHT22;3407;49.882;10.920;2023-02-15T22:36:29;0.00;56.40
6740;DHT22;3407;49.882;10.920;2023-02-15T22:41:27;0.10;55.20
6740;DHT22;3407;49.882;10.920;2023-02-15T22:46:24;0.00;50.60
6740;DHT22;3407;49.882;10.920;2023-02-15T22:51:21;0.10;52.30
6740;DHT22;3407;49.882;10.920;2023-02-15T22:56:21;0.00;53.60
6740;DHT22;3407;49.882;10.920;2023-02-15T23:01:28;0.10;55.70
6740;DHT22;3407;49.882;10.920;2023-02-15T23:06:24;0.20;55.70
6740;DHT22;3407;49.882;10.920;2023-02-15T23:11:20;0.30;54.60
6740;DHT22;3407;49.882;10.920;2023-02-15T23:16:16;0.30;52.60
6740;DHT22;3407;49.882;10.920;2023-02-15T23:21:21;0.30;50.70
6740;DHT22;3407;49.882;10.920;2023-02-15T23:26:20;0.40;55.20
6740;DHT22;3407;49.882;10.920;2023-02-15T23:31:36;0.40;50.10
6740;DHT22;3407;49.882;10.920;2023-02-15T23:36:36;0.50;52.20
6740;DHT22;3407;49.882;10.920;2023-02-15T23:41:31;0.60;54.50
6740;DHT22;3407;49.882;10.920;2023-02-15T23:46:39;0.60;54.60
6740;DHT22;3407;49.882;10.920;2023-02-15T23:51:35;0.60;52.20
6740;DHT22;3407;49.882;10.920;2023-02-15T23:56:30;0.70;50.10
